sensor_id;sensor_type;location;lat;lon;timestamp;P1;durP1;ratioP1;P2;durP2;ratioP2
79631;SDS011;69108;41.120;16.874;2023-11-19T00:00:19;5.28;;;1.20;;
79631;SDS011;69108;41.120;16.874;2023-11-19T00:02:46;4.95;;;1.00;;
79631;SDS011;69108;41.120;16.874;2023-11-19T00:05:14;6.95;;;1.02;;
79631;SDS011;69108;41.120;16.874;2023-11-19T00:10:09;7.68;;;1.10;;
79631;SDS011;69108;41.120;16.874;2023-11-19T00:12:38;2.97;;;0.88;;
79631;SDS011;69108;41.120;16.874;2023-11-19T00:15:06;5.47;;;0.93;;
79631;SDS011;69108;41.120;16.874;2023-11-19T00:17:39;5.03;;;1.20;;
79631;SDS011;69108;41.120;16.874;2023-11-19T00:20:10;3.65;;;0.80;;
79631;SDS011;69108;41.120;16.874;2023-11-19T00:22:41;4.40;;;1.00;;
79631;SDS011;69108;41.120;16.874;2023-11-19T00:25:09;6.13;;;1.00;;
79631;SDS011;69108;41.120;16.874;2023-11-19T00:27:36;5.10;;;1.15;;
79631;SDS011;69108;41.120;16.874;2023-11-19T00:30:05;3.17;;;1.10;;
79631;SDS011;69108;41.120;16.874;2023-11-19T00:32:34;6.15;;;0.90;;
79631;SDS011;69108;41.120;16.874;2023-11-19T00:35:03;7.70;;;1.08;;
79631;SDS011;69108;41.120;16.874;2023-11-19T00:37:35;4.50;;;1.17;;
79631;SDS011;69108;41.120;16.874;2023-11-19T00:40:02;2.20;;;0.70;;
79631;SDS011;69108;41.120;16.874;2023-11-19T00:42:30;4.65;;;0.80;;
79631;SDS011;69108;41.120;16.874;2023-11-19T00:45:00;2.53;;;0.90;;
79631;SDS011;69108;41.120;16.874;2023-11-19T00:49:56;7.45;;;1.00;;
79631;SDS011;69108;41.120;16.874;2023-11-19T00:52:26;3.17;;;0.90;;
79631;SDS011;69108;41.120;16.874;2023-11-19T00:54:56;4.45;;;0.90;;
79631;SDS011;69108;41.120;16.874;2023-11-19T00:57:23;3.47;;;0.90;;
79631;SDS011;69108;41.120;16.874;2023-11-19T00:59:53;3.45;;;0.70;;
79631;SDS011;69108;41.120;16.874;2023-11-19T01:02:25;4.45;;;0.98;;
79631;SDS011;69108;41.120;16.874;2023-11-19T01:04:53;3.45;;;0.77;;
79631;SDS011;69108;41.120;16.874;2023-11-19T01:07:22;3.80;;;0.90;;
79631;SDS011;69108;41.120;16.874;2023-11-19T01:09:56;5.72;;;1.00;;
79631;SDS011;69108;41.120;16.874;2023-11-19T01:12:24;2.90;;;0.70;;
79631;SDS011;69108;41.120;16.874;2023-11-19T01:14:52;3.58;;;0.80;;
79631;SDS011;69108;41.120;16.874;2023-11-19T01:17:22;4.47;;;0.90;;
79631;SDS011;69108;41.120;16.874;2023-11-19T01:19:49;3.42;;;0.80;;
79631;SDS011;69108;41.120;16.874;2023-11-19T01:22:17;2.42;;;0.77;;
79631;SDS011;69108;41.120;16.874;2023-11-19T01:24:50;4.00;;;0.70;;
79631;SDS011;69108;41.120;16.874;2023-11-19T01:27:20;2.97;;;0.75;;
79631;SDS011;69108;41.120;16.874;2023-11-19T01:29:48;5.63;;;0.95;;
79631;SDS011;69108;41.120;16.874;2023-11-19T01:32:16;3.72;;;0.85;;
79631;SDS011;69108;41.120;16.874;2023-11-19T01:34:44;5.32;;;1.35;;
79631;SDS011;69108;41.120;16.874;2023-11-19T01:37:13;3.17;;;0.80;;
79631;SDS011;69108;41.120;16.874;2023-11-19T01:39:43;3.30;;;0.73;;
79631;SDS011;69108;41.120;16.874;2023-11-19T01:42:14;2.75;;;0.70;;
79631;SDS011;69108;41.120;16.874;2023-11-19T01:44:41;6.15;;;0.90;;
79631;SDS011;69108;41.120;16.874;2023-11-19T01:47:11;6.05;;;1.05;;
79631;SDS011;69108;41.120;16.874;2023-11-19T01:49:46;5.43;;;0.90;;
79631;SDS011;69108;41.120;16.874;2023-11-19T01:52:14;3.65;;;0.80;;
79631;SDS011;69108;41.120;16.874;2023-11-19T01:54:41;2.17;;;0.73;;
79631;SDS011;69108;41.120;16.874;2023-11-19T01:57:08;2.15;;;0.65;;
79631;SDS011;69108;41.120;16.874;2023-11-19T01:59:37;3.15;;;0.70;;
79631;SDS011;69108;41.120;16.874;2023-11-19T02:02:04;6.05;;;1.05;;
79631;SDS011;69108;41.120;16.874;2023-11-19T02:04:33;3.55;;;0.70;;
79631;SDS011;69108;41.120;16.874;2023-11-19T02:07:01;4.35;;;0.90;;
79631;SDS011;69108;41.120;16.874;2023-11-19T02:09:29;2.45;;;0.70;;
79631;SDS011;69108;41.120;16.874;2023-11-19T02:11:57;3.38;;;1.00;;
79631;SDS011;69108;41.120;16.874;2023-11-19T02:14:25;3.70;;;0.95;;
79631;SDS011;69108;41.120;16.874;2023-11-19T02:16:55;3.78;;;0.90;;
79631;SDS011;69108;41.120;16.874;2023-11-19T02:19:23;3.25;;;0.80;;
79631;SDS011;69108;41.120;16.874;2023-11-19T02:21:50;2.95;;;0.80;;
79631;SDS011;69108;41.120;16.874;2023-11-19T02:24:18;3.50;;;0.82;;
79631;SDS011;69108;41.120;16.874;2023-11-19T02:26:52;3.10;;;0.70;;
79631;SDS011;69108;41.120;16.874;2023-11-19T02:29:30;4.70;;;1.15;;
79631;SDS011;69108;41.120;16.874;2023-11-19T02:32:00;5.40;;;1.40;;
79631;SDS011;69108;41.120;16.874;2023-11-19T02:34:29;6.78;;;1.73;;
79631;SDS011;69108;41.120;16.874;2023-11-19T02:36:56;6.30;;;2.10;;
79631;SDS011;69108;41.120;16.874;2023-11-19T02:39:23;8.00;;;2.25;;
79631;SDS011;69108;41.120;16.874;2023-11-19T02:44:18;5.95;;;1.73;;
79631;SDS011;69108;41.120;16.874;2023-11-19T02:46:47;8.38;;;2.00;;
79631;SDS011;69108;41.120;16.874;2023-11-19T02:49:16;7.70;;;1.95;;
79631;SDS011;69108;41.120;16.874;2023-11-19T02:54:09;5.97;;;1.80;;
79631;SDS011;69108;41.120;16.874;2023-11-19T02:56:42;6.40;;;1.95;;
79631;SDS011;69108;41.120;16.874;2023-11-19T02:59:14;5.85;;;2.03;;
79631;SDS011;69108;41.120;16.874;2023-11-19T03:01:56;4.90;;;1.50;;
79631;SDS011;69108;41.120;16.874;2023-11-19T03:04:24;5.22;;;1.50;;
79631;SDS011;69108;41.120;16.874;2023-11-19T03:06:52;7.45;;;2.35;;
79631;SDS011;69108;41.120;16.874;2023-11-19T03:09:19;6.63;;;2.00;;
79631;SDS011;69108;41.120;16.874;2023-11-19T03:11:47;6.88;;;1.70;;
79631;SDS011;69108;41.120;16.874;2023-11-19T03:14:15;5.75;;;1.95;;
79631;SDS011;69108;41.120;16.874;2023-11-19T03:16:51;6.30;;;1.80;;
79631;SDS011;69108;41.120;16.874;2023-11-19T03:19:19;4.50;;;1.90;;
79631;SDS011;69108;41.120;16.874;2023-11-19T03:21:46;7.70;;;2.17;;
79631;SDS011;69108;41.120;16.874;2023-11-19T03:24:15;9.63;;;2.38;;
79631;SDS011;69108;41.120;16.874;2023-11-19T03:26:42;6.45;;;1.95;;
79631;SDS011;69108;41.120;16.874;2023-11-19T03:29:09;8.75;;;2.35;;
79631;SDS011;69108;41.120;16.874;2023-11-19T03:31:41;6.68;;;1.80;;
79631;SDS011;69108;41.120;16.874;2023-11-19T03:34:09;7.70;;;2.13;;
79631;SDS011;69108;41.120;16.874;2023-11-19T03:36:38;5.32;;;1.95;;
79631;SDS011;69108;41.120;16.874;2023-11-19T03:39:06;6.45;;;1.85;;
79631;SDS011;69108;41.120;16.874;2023-11-19T03:41:33;6.28;;;2.20;;
79631;SDS011;69108;41.120;16.874;2023-11-19T03:44:03;6.05;;;2.10;;
79631;SDS011;69108;41.120;16.874;2023-11-19T03:46:32;7.70;;;2.33;;
79631;SDS011;69108;41.120;16.874;2023-11-19T03:49:00;5.38;;;1.70;;
79631;SDS011;69108;41.120;16.874;2023-11-19T03:51:29;6.05;;;1.88;;
79631;SDS011;69108;41.120;16.874;2023-11-19T03:53:58;4.78;;;1.70;;
79631;SDS011;69108;41.120;16.874;2023-11-19T03:56:35;4.68;;;1.75;;
79631;SDS011;69108;41.120;16.874;2023-11-19T03:59:02;16.42;;;2.15;;
79631;SDS011;69108;41.120;16.874;2023-11-19T04:01:29;6.63;;;1.83;;
79631;SDS011;69108;41.120;16.874;2023-11-19T04:03:56;6.40;;;1.90;;
79631;SDS011;69108;41.120;16.874;2023-11-19T04:06:24;3.40;;;1.45;;
79631;SDS011;69108;41.120;16.874;2023-11-19T04:08:52;9.43;;;2.17;;
79631;SDS011;69108;41.120;16.874;2023-11-19T04:11:21;6.72;;;1.90;;
79631;SDS011;69108;41.120;16.874;2023-11-19T04:13:48;6.53;;;2.10;;
79631;SDS011;69108;41.120;16.874;2023-11-19T04:16:16;5.80;;;1.73;;
79631;SDS011;69108;41.120;16.874;2023-11-19T04:18:42;5.07;;;1.73;;
79631;SDS011;69108;41.120;16.874;2023-11-19T04:21:13;8.27;;;1.88;;
79631;SDS011;69108;41.120;16.874;2023-11-19T04:23:40;6.88;;;1.80;;
79631;SDS011;69108;41.120;16.874;2023-11-19T04:26:08;5.93;;;1.60;;
79631;SDS011;69108;41.120;16.874;2023-11-19T04:28:36;6.10;;;2.20;;
79631;SDS011;69108;41.120;16.874;2023-11-19T04:31:04;4.25;;;1.65;;
79631;SDS011;69108;41.120;16.874;2023-11-19T04:33:34;6.13;;;1.90;;
79631;SDS011;69108;41.120;16.874;2023-11-19T04:36:04;5.22;;;1.50;;
79631;SDS011;69108;41.120;16.874;2023-11-19T04:38:39;5.40;;;1.45;;
79631;SDS011;69108;41.120;16.874;2023-11-19T04:41:08;5.75;;;1.63;;
79631;SDS011;69108;41.120;16.874;2023-11-19T04:43:37;6.70;;;1.55;;
79631;SDS011;69108;41.120;16.874;2023-11-19T04:46:06;7.82;;;1.90;;
79631;SDS011;69108;41.120;16.874;2023-11-19T04:48:34;5.95;;;1.75;;
79631;SDS011;69108;41.120;16.874;2023-11-19T04:51:04;4.65;;;1.60;;
79631;SDS011;69108;41.120;16.874;2023-11-19T04:53:31;6.63;;;1.80;;
79631;SDS011;69108;41.120;16.874;2023-11-19T04:55:58;6.38;;;2.05;;
79631;SDS011;69108;41.120;16.874;2023-11-19T04:58:26;5.22;;;1.98;;
79631;SDS011;69108;41.120;16.874;2023-11-19T05:00:56;8.15;;;2.20;;
79631;SDS011;69108;41.120;16.874;2023-11-19T05:03:24;6.63;;;2.03;;
79631;SDS011;69108;41.120;16.874;2023-11-19T05:05:51;8.88;;;2.40;;
79631;SDS011;69108;41.120;16.874;2023-11-19T05:08:18;6.97;;;2.17;;
79631;SDS011;69108;41.120;16.874;2023-11-19T05:10:45;9.10;;;1.98;;
79631;SDS011;69108;41.120;16.874;2023-11-19T05:13:12;8.50;;;2.78;;
79631;SDS011;69108;41.120;16.874;2023-11-19T05:15:40;6.70;;;2.20;;
79631;SDS011;69108;41.120;16.874;2023-11-19T05:18:08;7.80;;;2.10;;
79631;SDS011;69108;41.120;16.874;2023-11-19T05:20:35;7.70;;;2.13;;
79631;SDS011;69108;41.120;16.874;2023-11-19T05:23:03;5.10;;;2.08;;
79631;SDS011;69108;41.120;16.874;2023-11-19T05:25:31;10.55;;;2.35;;
79631;SDS011;69108;41.120;16.874;2023-11-19T05:27:58;7.60;;;2.40;;
79631;SDS011;69108;41.120;16.874;2023-11-19T05:30:28;6.35;;;2.33;;
79631;SDS011;69108;41.120;16.874;2023-11-19T05:32:55;7.22;;;1.85;;
79631;SDS011;69108;41.120;16.874;2023-11-19T05:35:23;6.93;;;2.17;;
79631;SDS011;69108;41.120;16.874;2023-11-19T05:37:50;6.75;;;1.95;;
79631;SDS011;69108;41.120;16.874;2023-11-19T05:40:16;5.70;;;2.45;;
79631;SDS011;69108;41.120;16.874;2023-11-19T05:42:45;6.10;;;1.83;;
79631;SDS011;69108;41.120;16.874;2023-11-19T05:45:12;5.88;;;1.70;;
79631;SDS011;69108;41.120;16.874;2023-11-19T05:47:39;5.28;;;1.83;;
79631;SDS011;69108;41.120;16.874;2023-11-19T05:50:06;9.43;;;1.83;;
79631;SDS011;69108;41.120;16.874;2023-11-19T05:52:35;7.10;;;2.10;;
79631;SDS011;69108;41.120;16.874;2023-11-19T05:55:02;7.28;;;1.88;;
79631;SDS011;69108;41.120;16.874;2023-11-19T05:57:34;6.47;;;2.03;;
79631;SDS011;69108;41.120;16.874;2023-11-19T06:00:01;6.82;;;2.00;;
79631;SDS011;69108;41.120;16.874;2023-11-19T06:02:29;5.65;;;1.88;;
79631;SDS011;69108;41.120;16.874;2023-11-19T06:04:56;6.28;;;2.03;;
79631;SDS011;69108;41.120;16.874;2023-11-19T06:07:23;6.72;;;1.77;;
79631;SDS011;69108;41.120;16.874;2023-11-19T06:09:51;12.13;;;2.83;;
79631;SDS011;69108;41.120;16.874;2023-11-19T06:12:18;7.88;;;2.47;;
79631;SDS011;69108;41.120;16.874;2023-11-19T06:14:45;6.75;;;2.40;;
79631;SDS011;69108;41.120;16.874;2023-11-19T06:17:12;8.40;;;2.35;;
79631;SDS011;69108;41.120;16.874;2023-11-19T06:19:39;7.35;;;2.05;;
79631;SDS011;69108;41.120;16.874;2023-11-19T06:22:05;6.15;;;1.73;;
79631;SDS011;69108;41.120;16.874;2023-11-19T06:24:32;6.15;;;1.90;;
79631;SDS011;69108;41.120;16.874;2023-11-19T06:27:01;10.05;;;2.10;;
79631;SDS011;69108;41.120;16.874;2023-11-19T06:29:28;7.03;;;2.00;;
79631;SDS011;69108;41.120;16.874;2023-11-19T06:31:54;5.97;;;1.50;;
79631;SDS011;69108;41.120;16.874;2023-11-19T06:34:22;4.70;;;1.50;;
79631;SDS011;69108;41.120;16.874;2023-11-19T06:36:48;53.67;;;6.40;;
79631;SDS011;69108;41.120;16.874;2023-11-19T06:39:15;110.53;;;8.32;;
79631;SDS011;69108;41.120;16.874;2023-11-19T06:41:44;355.80;;;27.77;;
79631;SDS011;69108;41.120;16.874;2023-11-19T06:44:13;141.63;;;11.82;;
79631;SDS011;69108;41.120;16.874;2023-11-19T06:46:40;112.63;;;9.50;;
79631;SDS011;69108;41.120;16.874;2023-11-19T06:49:07;170.80;;;13.85;;
79631;SDS011;69108;41.120;16.874;2023-11-19T06:51:33;25.20;;;4.00;;
79631;SDS011;69108;41.120;16.874;2023-11-19T06:54:01;48.63;;;6.03;;
79631;SDS011;69108;41.120;16.874;2023-11-19T06:56:28;111.72;;;12.85;;
79631;SDS011;69108;41.120;16.874;2023-11-19T06:58:55;109.95;;;12.50;;
79631;SDS011;69108;41.120;16.874;2023-11-19T07:01:23;180.52;;;16.17;;
79631;SDS011;69108;41.120;16.874;2023-11-19T07:03:50;69.13;;;8.05;;
79631;SDS011;69108;41.120;16.874;2023-11-19T07:06:17;46.47;;;6.28;;
79631;SDS011;69108;41.120;16.874;2023-11-19T07:08:44;144.13;;;12.60;;
79631;SDS011;69108;41.120;16.874;2023-11-19T07:11:11;46.85;;;6.55;;
79631;SDS011;69108;41.120;16.874;2023-11-19T07:13:39;177.70;;;12.68;;
79631;SDS011;69108;41.120;16.874;2023-11-19T07:16:07;12.90;;;3.10;;
79631;SDS011;69108;41.120;16.874;2023-11-19T07:18:36;8.30;;;2.90;;
79631;SDS011;69108;41.120;16.874;2023-11-19T07:21:04;10.88;;;3.63;;
79631;SDS011;69108;41.120;16.874;2023-11-19T07:23:32;9.35;;;3.70;;
79631;SDS011;69108;41.120;16.874;2023-11-19T07:25:59;24.52;;;5.13;;
79631;SDS011;69108;41.120;16.874;2023-11-19T07:28:26;141.88;;;12.50;;
79631;SDS011;69108;41.120;16.874;2023-11-19T07:30:54;14.40;;;3.97;;
79631;SDS011;69108;41.120;16.874;2023-11-19T07:33:22;137.52;;;14.27;;
79631;SDS011;69108;41.120;16.874;2023-11-19T07:35:50;63.55;;;8.27;;
79631;SDS011;69108;41.120;16.874;2023-11-19T07:38:17;42.83;;;5.35;;
79631;SDS011;69108;41.120;16.874;2023-11-19T07:40:44;19.25;;;5.85;;
79631;SDS011;69108;41.120;16.874;2023-11-19T07:43:11;14.05;;;4.10;;
79631;SDS011;69108;41.120;16.874;2023-11-19T07:45:37;11.93;;;5.03;;
79631;SDS011;69108;41.120;16.874;2023-11-19T07:48:04;18.30;;;4.38;;
79631;SDS011;69108;41.120;16.874;2023-11-19T07:50:31;28.75;;;5.43;;
79631;SDS011;69108;41.120;16.874;2023-11-19T07:53:00;44.38;;;8.05;;
79631;SDS011;69108;41.120;16.874;2023-11-19T07:55:27;50.05;;;7.85;;
79631;SDS011;69108;41.120;16.874;2023-11-19T07:57:54;53.70;;;7.28;;
79631;SDS011;69108;41.120;16.874;2023-11-19T08:00:21;35.08;;;6.03;;
79631;SDS011;69108;41.120;16.874;2023-11-19T08:02:48;19.27;;;4.68;;
79631;SDS011;69108;41.120;16.874;2023-11-19T08:05:14;10.90;;;3.58;;
79631;SDS011;69108;41.120;16.874;2023-11-19T08:07:41;9.63;;;2.90;;
79631;SDS011;69108;41.120;16.874;2023-11-19T08:10:10;7.60;;;2.63;;
79631;SDS011;69108;41.120;16.874;2023-11-19T08:12:37;17.00;;;3.60;;
79631;SDS011;69108;41.120;16.874;2023-11-19T08:15:05;11.23;;;2.85;;
79631;SDS011;69108;41.120;16.874;2023-11-19T08:17:32;21.70;;;3.30;;
79631;SDS011;69108;41.120;16.874;2023-11-19T08:19:59;135.32;;;11.70;;
79631;SDS011;69108;41.120;16.874;2023-11-19T08:22:26;184.77;;;16.17;;
79631;SDS011;69108;41.120;16.874;2023-11-19T08:24:53;38.78;;;5.47;;
79631;SDS011;69108;41.120;16.874;2023-11-19T08:27:21;19.70;;;3.17;;
79631;SDS011;69108;41.120;16.874;2023-11-19T08:29:52;6.30;;;2.10;;
79631;SDS011;69108;41.120;16.874;2023-11-19T08:32:20;10.07;;;4.07;;
79631;SDS011;69108;41.120;16.874;2023-11-19T08:34:47;3.83;;;1.55;;
79631;SDS011;69108;41.120;16.874;2023-11-19T08:37:14;5.97;;;1.67;;
79631;SDS011;69108;41.120;16.874;2023-11-19T08:39:43;3.72;;;1.30;;
79631;SDS011;69108;41.120;16.874;2023-11-19T08:42:11;4.20;;;1.40;;
79631;SDS011;69108;41.120;16.874;2023-11-19T08:44:40;9.15;;;2.60;;
79631;SDS011;69108;41.120;16.874;2023-11-19T08:47:08;5.03;;;1.35;;
79631;SDS011;69108;41.120;16.874;2023-11-19T08:49:36;3.58;;;1.42;;
79631;SDS011;69108;41.120;16.874;2023-11-19T08:52:04;7.35;;;1.70;;
79631;SDS011;69108;41.120;16.874;2023-11-19T08:54:32;5.13;;;1.35;;
79631;SDS011;69108;41.120;16.874;2023-11-19T08:56:59;16.98;;;1.95;;
79631;SDS011;69108;41.120;16.874;2023-11-19T08:59:28;7.28;;;1.10;;
79631;SDS011;69108;41.120;16.874;2023-11-19T09:01:56;4.55;;;1.48;;
79631;SDS011;69108;41.120;16.874;2023-11-19T09:04:23;4.90;;;1.02;;
79631;SDS011;69108;41.120;16.874;2023-11-19T09:06:52;6.07;;;1.00;;
79631;SDS011;69108;41.120;16.874;2023-11-19T09:09:20;1.98;;;0.70;;
79631;SDS011;69108;41.120;16.874;2023-11-19T09:11:46;3.30;;;1.00;;
79631;SDS011;69108;41.120;16.874;2023-11-19T09:14:13;2.80;;;0.90;;
79631;SDS011;69108;41.120;16.874;2023-11-19T09:16:40;3.53;;;0.98;;
79631;SDS011;69108;41.120;16.874;2023-11-19T09:19:09;5.57;;;1.30;;
79631;SDS011;69108;41.120;16.874;2023-11-19T09:21:36;5.50;;;1.30;;
79631;SDS011;69108;41.120;16.874;2023-11-19T09:26:32;3.05;;;1.08;;
79631;SDS011;69108;41.120;16.874;2023-11-19T09:28:59;4.50;;;1.30;;
79631;SDS011;69108;41.120;16.874;2023-11-19T09:31:26;5.78;;;1.23;;
79631;SDS011;69108;41.120;16.874;2023-11-19T09:33:53;5.70;;;1.27;;
79631;SDS011;69108;41.120;16.874;2023-11-19T09:36:22;4.88;;;1.60;;
79631;SDS011;69108;41.120;16.874;2023-11-19T09:38:49;3.28;;;0.90;;
79631;SDS011;69108;41.120;16.874;2023-11-19T09:41:16;5.45;;;1.48;;
79631;SDS011;69108;41.120;16.874;2023-11-19T09:43:44;5.75;;;1.38;;
79631;SDS011;69108;41.120;16.874;2023-11-19T09:46:12;4.30;;;2.00;;
79631;SDS011;69108;41.120;16.874;2023-11-19T09:48:40;5.15;;;1.70;;
79631;SDS011;69108;41.120;16.874;2023-11-19T09:53:37;4.65;;;1.63;;
79631;SDS011;69108;41.120;16.874;2023-11-19T09:56:04;6.03;;;1.75;;
79631;SDS011;69108;41.120;16.874;2023-11-19T09:58:33;4.20;;;1.42;;
79631;SDS011;69108;41.120;16.874;2023-11-19T10:01:00;6.70;;;1.80;;
79631;SDS011;69108;41.120;16.874;2023-11-19T10:03:28;8.95;;;1.65;;
79631;SDS011;69108;41.120;16.874;2023-11-19T10:05:59;5.00;;;1.60;;
79631;SDS011;69108;41.120;16.874;2023-11-19T10:08:27;5.35;;;1.98;;
79631;SDS011;69108;41.120;16.874;2023-11-19T10:10:55;7.45;;;2.42;;
79631;SDS011;69108;41.120;16.874;2023-11-19T10:13:25;9.68;;;2.30;;
79631;SDS011;69108;41.120;16.874;2023-11-19T10:15:52;7.95;;;3.05;;
79631;SDS011;69108;41.120;16.874;2023-11-19T10:18:23;5.15;;;2.10;;
79631;SDS011;69108;41.120;16.874;2023-11-19T10:20:51;5.65;;;2.33;;
79631;SDS011;69108;41.120;16.874;2023-11-19T10:23:18;4.78;;;1.70;;
79631;SDS011;69108;41.120;16.874;2023-11-19T10:25:45;7.05;;;2.00;;
79631;SDS011;69108;41.120;16.874;2023-11-19T10:28:13;6.10;;;1.90;;
79631;SDS011;69108;41.120;16.874;2023-11-19T10:30:41;5.55;;;1.90;;
79631;SDS011;69108;41.120;16.874;2023-11-19T10:33:09;7.32;;;1.92;;
79631;SDS011;69108;41.120;16.874;2023-11-19T10:35:52;5.53;;;1.98;;
79631;SDS011;69108;41.120;16.874;2023-11-19T10:38:19;5.82;;;1.75;;
79631;SDS011;69108;41.120;16.874;2023-11-19T10:40:47;4.78;;;1.40;;
79631;SDS011;69108;41.120;16.874;2023-11-19T10:43:15;5.63;;;1.80;;
79631;SDS011;69108;41.120;16.874;2023-11-19T10:45:43;6.10;;;1.77;;
79631;SDS011;69108;41.120;16.874;2023-11-19T10:48:10;5.50;;;1.83;;
79631;SDS011;69108;41.120;16.874;2023-11-19T10:50:39;6.57;;;1.50;;
79631;SDS011;69108;41.120;16.874;2023-11-19T10:53:08;5.50;;;1.65;;
79631;SDS011;69108;41.120;16.874;2023-11-19T10:55:36;5.88;;;1.85;;
79631;SDS011;69108;41.120;16.874;2023-11-19T10:58:05;6.68;;;1.23;;
79631;SDS011;69108;41.120;16.874;2023-11-19T11:00:37;4.05;;;1.25;;
79631;SDS011;69108;41.120;16.874;2023-11-19T11:03:08;4.13;;;1.30;;
79631;SDS011;69108;41.120;16.874;2023-11-19T11:05:37;6.25;;;1.70;;
79631;SDS011;69108;41.120;16.874;2023-11-19T11:10:34;5.47;;;1.50;;
79631;SDS011;69108;41.120;16.874;2023-11-19T11:13:05;5.55;;;1.42;;
79631;SDS011;69108;41.120;16.874;2023-11-19T11:15:32;3.65;;;1.38;;
79631;SDS011;69108;41.120;16.874;2023-11-19T11:18:02;5.57;;;1.60;;
79631;SDS011;69108;41.120;16.874;2023-11-19T11:20:30;4.65;;;1.45;;
79631;SDS011;69108;41.120;16.874;2023-11-19T11:23:14;5.13;;;1.48;;
79631;SDS011;69108;41.120;16.874;2023-11-19T11:26:38;6.72;;;1.85;;
79631;SDS011;69108;41.120;16.874;2023-11-19T11:29:16;4.20;;;1.42;;
79631;SDS011;69108;41.120;16.874;2023-11-19T11:31:54;5.88;;;1.88;;
79631;SDS011;69108;41.120;16.874;2023-11-19T11:37:25;6.22;;;2.90;;
79631;SDS011;69108;41.120;16.874;2023-11-19T11:40:01;4.22;;;1.80;;
79631;SDS011;69108;41.120;16.874;2023-11-19T11:42:35;5.35;;;1.92;;
79631;SDS011;69108;41.120;16.874;2023-11-19T11:45:04;4.20;;;1.65;;
79631;SDS011;69108;41.120;16.874;2023-11-19T11:50:50;5.05;;;1.55;;
79631;SDS011;69108;41.120;16.874;2023-11-19T11:53:23;4.55;;;1.50;;
79631;SDS011;69108;41.120;16.874;2023-11-19T11:55:54;7.70;;;2.00;;
79631;SDS011;69108;41.120;16.874;2023-11-19T11:58:25;5.20;;;2.40;;
79631;SDS011;69108;41.120;16.874;2023-11-19T12:00:56;4.50;;;1.65;;
79631;SDS011;69108;41.120;16.874;2023-11-19T12:03:26;5.55;;;1.50;;
79631;SDS011;69108;41.120;16.874;2023-11-19T12:05:54;4.88;;;1.80;;
79631;SDS011;69108;41.120;16.874;2023-11-19T12:08:24;4.10;;;1.30;;
79631;SDS011;69108;41.120;16.874;2023-11-19T12:10:53;4.05;;;1.45;;
79631;SDS011;69108;41.120;16.874;2023-11-19T12:13:23;4.20;;;1.42;;
79631;SDS011;69108;41.120;16.874;2023-11-19T12:16:08;3.40;;;1.50;;
79631;SDS011;69108;41.120;16.874;2023-11-19T12:18:38;4.88;;;1.48;;
79631;SDS011;69108;41.120;16.874;2023-11-19T12:21:07;5.68;;;1.58;;
79631;SDS011;69108;41.120;16.874;2023-11-19T12:23:35;4.93;;;1.70;;
79631;SDS011;69108;41.120;16.874;2023-11-19T12:26:20;4.10;;;1.52;;
79631;SDS011;69108;41.120;16.874;2023-11-19T12:28:59;3.78;;;1.30;;
79631;SDS011;69108;41.120;16.874;2023-11-19T12:31:29;5.03;;;1.48;;
79631;SDS011;69108;41.120;16.874;2023-11-19T12:36:25;5.05;;;1.48;;
79631;SDS011;69108;41.120;16.874;2023-11-19T12:38:52;6.22;;;1.50;;
79631;SDS011;69108;41.120;16.874;2023-11-19T12:41:19;3.40;;;1.23;;
79631;SDS011;69108;41.120;16.874;2023-11-19T12:43:48;4.13;;;1.40;;
79631;SDS011;69108;41.120;16.874;2023-11-19T12:46:19;4.10;;;1.35;;
79631;SDS011;69108;41.120;16.874;2023-11-19T12:48:47;4.90;;;1.33;;
79631;SDS011;69108;41.120;16.874;2023-11-19T12:51:15;5.53;;;1.42;;
79631;SDS011;69108;41.120;16.874;2023-11-19T12:53:48;5.22;;;1.42;;
79631;SDS011;69108;41.120;16.874;2023-11-19T12:56:19;4.97;;;1.15;;
79631;SDS011;69108;41.120;16.874;2023-11-19T12:58:46;4.50;;;1.55;;
79631;SDS011;69108;41.120;16.874;2023-11-19T13:01:15;4.07;;;1.60;;
79631;SDS011;69108;41.120;16.874;2023-11-19T13:03:43;4.88;;;1.50;;
79631;SDS011;69108;41.120;16.874;2023-11-19T13:06:11;3.58;;;1.30;;
79631;SDS011;69108;41.120;16.874;2023-11-19T13:08:41;3.92;;;1.30;;
79631;SDS011;69108;41.120;16.874;2023-11-19T13:11:10;4.60;;;1.33;;
79631;SDS011;69108;41.120;16.874;2023-11-19T13:13:56;7.68;;;1.40;;
79631;SDS011;69108;41.120;16.874;2023-11-19T13:16:24;4.95;;;1.30;;
79631;SDS011;69108;41.120;16.874;2023-11-19T13:21:18;3.92;;;1.30;;
79631;SDS011;69108;41.120;16.874;2023-11-19T13:23:47;3.10;;;1.25;;
79631;SDS011;69108;41.120;16.874;2023-11-19T13:26:14;4.72;;;1.60;;
79631;SDS011;69108;41.120;16.874;2023-11-19T13:28:41;5.10;;;1.25;;
79631;SDS011;69108;41.120;16.874;2023-11-19T13:31:08;4.55;;;1.30;;
79631;SDS011;69108;41.120;16.874;2023-11-19T13:33:35;5.50;;;1.48;;
79631;SDS011;69108;41.120;16.874;2023-11-19T13:36:02;5.22;;;1.65;;
79631;SDS011;69108;41.120;16.874;2023-11-19T13:38:31;3.38;;;1.17;;
79631;SDS011;69108;41.120;16.874;2023-11-19T13:40:59;5.65;;;1.50;;
79631;SDS011;69108;41.120;16.874;2023-11-19T13:43:27;7.32;;;2.72;;
79631;SDS011;69108;41.120;16.874;2023-11-19T13:45:54;8.82;;;2.50;;
79631;SDS011;69108;41.120;16.874;2023-11-19T13:48:21;3.38;;;1.40;;
79631;SDS011;69108;41.120;16.874;2023-11-19T13:50:48;3.88;;;1.40;;
79631;SDS011;69108;41.120;16.874;2023-11-19T13:53:15;4.60;;;1.63;;
79631;SDS011;69108;41.120;16.874;2023-11-19T13:55:42;3.97;;;1.10;;
79631;SDS011;69108;41.120;16.874;2023-11-19T13:58:11;4.55;;;1.40;;
79631;SDS011;69108;41.120;16.874;2023-11-19T14:00:37;4.53;;;1.48;;
79631;SDS011;69108;41.120;16.874;2023-11-19T14:03:07;6.65;;;1.40;;
79631;SDS011;69108;41.120;16.874;2023-11-19T14:05:34;4.30;;;1.42;;
79631;SDS011;69108;41.120;16.874;2023-11-19T14:08:01;4.18;;;1.25;;
79631;SDS011;69108;41.120;16.874;2023-11-19T14:10:28;4.90;;;1.40;;
79631;SDS011;69108;41.120;16.874;2023-11-19T14:12:55;15.57;;;1.35;;
79631;SDS011;69108;41.120;16.874;2023-11-19T14:15:25;3.22;;;1.15;;
79631;SDS011;69108;41.120;16.874;2023-11-19T14:17:51;3.72;;;1.20;;
79631;SDS011;69108;41.120;16.874;2023-11-19T14:20:18;4.88;;;1.52;;
79631;SDS011;69108;41.120;16.874;2023-11-19T14:22:45;4.43;;;1.05;;
79631;SDS011;69108;41.120;16.874;2023-11-19T14:25:14;4.38;;;1.30;;
79631;SDS011;69108;41.120;16.874;2023-11-19T14:27:42;3.55;;;1.20;;
79631;SDS011;69108;41.120;16.874;2023-11-19T14:30:11;3.10;;;1.20;;
79631;SDS011;69108;41.120;16.874;2023-11-19T14:32:41;4.18;;;1.17;;
79631;SDS011;69108;41.120;16.874;2023-11-19T14:35:09;3.78;;;0.93;;
79631;SDS011;69108;41.120;16.874;2023-11-19T14:37:36;3.05;;;1.10;;
79631;SDS011;69108;41.120;16.874;2023-11-19T14:40:04;4.57;;;1.50;;
79631;SDS011;69108;41.120;16.874;2023-11-19T14:42:34;5.03;;;1.40;;
79631;SDS011;69108;41.120;16.874;2023-11-19T14:45:00;4.18;;;1.10;;
79631;SDS011;69108;41.120;16.874;2023-11-19T14:47:27;4.05;;;1.00;;
79631;SDS011;69108;41.120;16.874;2023-11-19T14:49:57;3.90;;;1.15;;
79631;SDS011;69108;41.120;16.874;2023-11-19T14:52:24;5.50;;;1.23;;
79631;SDS011;69108;41.120;16.874;2023-11-19T14:54:52;4.28;;;1.25;;
79631;SDS011;69108;41.120;16.874;2023-11-19T14:57:21;3.13;;;1.10;;
79631;SDS011;69108;41.120;16.874;2023-11-19T14:59:48;3.65;;;1.17;;
79631;SDS011;69108;41.120;16.874;2023-11-19T15:02:15;3.50;;;1.30;;
79631;SDS011;69108;41.120;16.874;2023-11-19T15:04:42;2.95;;;1.10;;
79631;SDS011;69108;41.120;16.874;2023-11-19T15:07:12;3.83;;;1.30;;